createdAt,value
2019-02-28T00:14:04.419Z,5.33
2019-02-28T00:22:55.459Z,5.23
2019-02-28T00:31:25.913Z,6.23
2019-02-28T00:37:09.601Z,4.97
2019-02-28T00:42:53.286Z,6.07
2019-02-28T00:45:21.866Z,6.30
2019-02-28T00:48:09.756Z,5.53
2019-02-28T00:56:40.270Z,6.80
2019-02-28T01:41:25.721Z,6.53
2019-02-28T01:47:32.013Z,9.70
2019-02-28T02:04:47.378Z,9.40
2019-02-28T02:07:33.351Z,11.23
2019-02-28T02:18:43.492Z,7.40
2019-02-28T02:24:06.054Z,10.57
2019-02-28T02:26:34.644Z,9.60
2019-02-28T02:32:00.976Z,9.40
2019-02-28T02:40:47.127Z,7.70
2019-02-28T02:46:07.789Z,11.60
2019-02-28T02:48:38.531Z,13.57
2019-02-28T02:51:10.658Z,10.40
2019-02-28T03:05:42.635Z,11.83
2019-02-28T03:08:35.725Z,10.90
2019-02-28T03:11:00.862Z,9.67
2019-02-28T03:16:33.033Z,11.57
2019-02-28T03:19:02.244Z,10.93
2019-02-28T03:21:30.862Z,11.13
2019-02-28T03:23:59.437Z,12.53
2019-02-28T03:26:28.097Z,13.90
2019-02-28T03:28:56.623Z,10.47
2019-02-28T03:31:25.284Z,13.40
2019-02-28T03:36:55.506Z,16.77
2019-02-28T03:39:24.093Z,13.80
2019-02-28T03:41:53.008Z,13.40
2019-02-28T03:44:21.894Z,9.87
2019-02-28T03:46:51.000Z,13.60
2019-02-28T03:52:15.358Z,12.23
2019-02-28T03:57:37.823Z,10.57
2019-02-28T04:00:17.879Z,10.50
2019-02-28T04:03:05.910Z,11.03
2019-02-28T04:05:34.478Z,12.97
2019-02-28T04:08:29.382Z,13.20
2019-02-28T04:10:54.740Z,10.43
2019-02-28T04:13:42.206Z,15.00
2019-02-28T04:16:30.094Z,9.20
2019-02-28T04:18:58.693Z,11.60
2019-02-28T04:21:27.260Z,12.80
2019-02-28T04:24:15.204Z,15.70
2019-02-28T04:26:43.760Z,13.63
2019-02-28T04:29:12.380Z,15.10
2019-02-28T04:31:40.968Z,16.23
2019-02-28T04:34:12.981Z,13.40
2019-02-28T04:36:39.783Z,12.57
2019-02-28T04:39:27.698Z,15.77
2019-02-28T04:41:56.308Z,14.40
2019-02-28T04:44:24.887Z,15.83
2019-02-28T04:46:53.470Z,15.73
2019-02-28T04:49:41.471Z,11.63
2019-02-28T04:52:11.826Z,11.23
2019-02-28T04:54:40.325Z,13.53
2019-02-28T04:57:08.891Z,13.73
2019-02-28T04:59:37.565Z,13.47
2019-02-28T05:02:06.138Z,13.80
2019-02-28T05:04:36.164Z,16.23
2019-02-28T05:07:05.078Z,14.37
2019-02-28T05:09:53.012Z,17.00
2019-02-28T05:12:21.604Z,18.47
2019-02-28T05:15:11.068Z,18.63
2019-02-28T05:17:39.671Z,15.57
2019-02-28T05:20:10.746Z,13.33
2019-02-28T05:22:40.086Z,13.90
2019-02-28T05:25:30.266Z,15.87
2019-02-28T05:27:58.882Z,13.93
2019-02-28T05:30:27.426Z,12.43
2019-02-28T05:32:56.090Z,17.33
2019-02-28T05:35:26.635Z,15.83
2019-02-28T05:37:54.915Z,19.57
2019-02-28T05:40:23.475Z,17.47
2019-02-28T05:43:11.519Z,14.90
2019-02-28T05:45:40.123Z,11.50
2019-02-28T05:48:28.133Z,17.77
2019-02-28T05:50:56.702Z,15.10
2019-02-28T05:53:25.380Z,11.47
2019-02-28T05:55:58.816Z,14.67
2019-02-28T05:58:43.625Z,15.60
2019-02-28T06:01:12.572Z,14.40
2019-02-28T06:03:41.233Z,12.13
2019-02-28T06:06:09.825Z,14.37
2019-02-28T06:08:39.211Z,13.27
2019-02-28T06:11:08.456Z,14.97
2019-02-28T06:13:37.223Z,16.93
2019-02-28T06:16:11.319Z,18.20
2019-02-28T06:18:36.166Z,20.03
2019-02-28T06:21:04.718Z,17.57
2019-02-28T06:23:33.356Z,18.33
2019-02-28T06:26:02.047Z,15.00
2019-02-28T06:28:31.023Z,16.73
2019-02-28T06:31:00.541Z,14.93
2019-02-28T06:33:30.535Z,17.90
2019-02-28T06:35:59.581Z,17.20
2019-02-28T06:38:28.196Z,18.40
2019-02-28T06:40:56.770Z,16.50
2019-02-28T06:43:25.367Z,15.87
2019-02-28T06:48:41.273Z,13.37
2019-02-28T06:51:09.852Z,14.30
2019-02-28T06:53:39.599Z,15.27
2019-02-28T06:56:08.198Z,14.93
2019-02-28T06:58:36.780Z,17.43
2019-02-28T07:01:05.428Z,14.43
2019-02-28T07:03:35.221Z,16.63
2019-02-28T07:06:04.671Z,16.57
2019-02-28T07:08:33.346Z,16.27
2019-02-28T07:11:01.920Z,17.87
2019-02-28T07:13:49.859Z,21.03
2019-02-28T07:16:18.434Z,16.30
2019-02-28T07:18:47.044Z,16.40
2019-02-28T07:21:15.609Z,16.30
2019-02-28T07:24:03.796Z,17.97
2019-02-28T07:26:53.024Z,16.70
2019-02-28T07:29:22.054Z,17.00
2019-02-28T07:32:10.031Z,14.70
2019-02-28T07:34:58.886Z,16.97
2019-02-28T07:37:53.347Z,17.13
2019-02-28T07:40:37.106Z,14.43
2019-02-28T07:43:25.018Z,14.00
2019-02-28T07:46:08.908Z,14.63
2019-02-28T07:48:53.094Z,18.60
2019-02-28T07:54:24.960Z,18.77
2019-02-28T07:59:57.604Z,22.83
2019-02-28T08:05:30.939Z,18.67
2019-02-28T08:11:03.495Z,22.50
2019-02-28T08:16:33.789Z,24.77
2019-02-28T08:19:12.686Z,22.03
2019-02-28T08:24:40.475Z,23.37
2019-02-28T08:27:18.866Z,25.50
2019-02-28T08:30:26.143Z,27.93
2019-02-28T08:33:16.277Z,28.73
2019-02-28T08:36:05.391Z,30.17
2019-02-28T08:38:53.174Z,30.17
2019-02-28T08:41:41.090Z,26.60
2019-02-28T08:44:29.016Z,28.23
2019-02-28T08:47:07.378Z,28.07
2019-02-28T08:49:55.294Z,28.57
2019-02-28T08:52:43.363Z,28.57
2019-02-28T08:55:31.278Z,26.43
2019-02-28T08:58:19.171Z,27.87
2019-02-28T09:01:07.167Z,31.43
2019-02-28T09:03:55.056Z,26.90
2019-02-28T09:06:42.990Z,31.47
2019-02-28T09:09:31.659Z,27.60
2019-02-28T09:12:20.564Z,28.17
2019-02-28T09:18:22.798Z,26.93
2019-02-28T09:21:10.722Z,25.03
2019-02-28T09:23:58.613Z,30.10
2019-02-28T09:26:46.527Z,31.13
2019-02-28T09:29:34.418Z,30.43
2019-02-28T09:35:36.743Z,32.70
2019-02-28T09:38:24.637Z,31.10
2019-02-28T09:41:12.554Z,30.63
2019-02-28T09:44:00.436Z,32.63
2019-02-28T09:46:41.273Z,30.07
2019-02-28T09:49:21.545Z,32.73
2019-02-28T09:52:00.122Z,33.67
2019-02-28T09:54:48.018Z,32.77
2019-02-28T09:57:35.944Z,34.77
2019-02-28T10:03:52.230Z,34.57
2019-02-28T10:06:41.066Z,37.77
2019-02-28T10:09:28.950Z,35.03
2019-02-28T10:12:16.793Z,36.23
2019-02-28T10:18:35.409Z,35.70
2019-02-28T10:21:21.906Z,36.67
2019-02-28T10:24:09.821Z,34.83
2019-02-28T10:26:57.748Z,33.53
2019-02-28T10:29:45.638Z,41.57
2019-02-28T10:32:33.482Z,36.77
2019-02-28T10:35:21.449Z,43.43
2019-02-28T10:38:09.370Z,36.43
2019-02-28T10:40:57.265Z,36.93
2019-02-28T10:43:49.344Z,36.43
2019-02-28T10:46:27.953Z,37.47
2019-02-28T10:49:08.765Z,36.90
2019-02-28T10:51:50.344Z,34.73
2019-02-28T10:54:28.915Z,34.10
2019-02-28T10:57:16.810Z,33.90
2019-02-28T11:03:18.794Z,36.73
2019-02-28T11:06:06.703Z,32.77
2019-02-28T11:08:54.611Z,32.17
2019-02-28T11:11:45.475Z,33.90
2019-02-28T11:14:32.060Z,31.40
2019-02-28T11:17:19.942Z,30.40
2019-02-28T11:20:27.212Z,29.67
2019-02-28T11:23:15.899Z,31.13
2019-02-28T11:26:06.541Z,33.13
2019-02-28T11:28:54.466Z,27.97
2019-02-28T11:31:42.427Z,33.13
2019-02-28T11:34:30.407Z,29.10
2019-02-28T11:37:18.302Z,29.53
2019-02-28T11:43:40.601Z,26.53
2019-02-28T11:46:21.155Z,27.80
2019-02-28T11:49:01.777Z,27.17
2019-02-28T11:51:42.470Z,26.97
2019-02-28T11:54:12.233Z,26.37
2019-02-28T11:57:03.112Z,24.30
2019-02-28T11:59:50.179Z,24.80
2019-02-28T12:02:38.065Z,29.40
2019-02-28T12:05:26.167Z,23.83
2019-02-28T12:08:14.148Z,23.77
2019-02-28T12:13:56.102Z,30.63
2019-02-28T12:16:44.099Z,25.33
2019-02-28T12:19:32.043Z,25.70
2019-02-28T12:22:20.220Z,30.50
2019-02-28T12:25:28.851Z,25.17
2019-02-28T12:28:16.743Z,24.17
2019-02-28T12:31:04.747Z,24.93
2019-02-28T12:36:49.438Z,24.67
2019-02-28T12:39:38.015Z,24.30
2019-02-28T12:42:25.910Z,25.30
2019-02-28T12:48:20.783Z,24.30
2019-02-28T12:51:05.185Z,24.87
2019-02-28T12:56:28.630Z,26.97
2019-02-28T13:01:58.324Z,26.97
2019-02-28T13:04:39.103Z,26.07
2019-02-28T13:07:20.043Z,23.50
2019-02-28T13:10:00.668Z,22.43
2019-02-28T13:12:44.071Z,24.23
2019-02-28T13:15:24.661Z,24.07
2019-02-28T13:18:09.033Z,25.23
2019-02-28T13:20:49.467Z,26.13
2019-02-28T13:23:33.023Z,28.77
2019-02-28T13:26:12.593Z,25.57
2019-02-28T13:28:50.985Z,26.17
2019-02-28T13:31:38.907Z,25.47
2019-02-28T13:34:29.072Z,27.53
2019-02-28T13:37:16.345Z,26.80
2019-02-28T13:43:32.161Z,26.77
2019-02-28T13:46:14.053Z,31.50
2019-02-28T13:48:54.699Z,27.80
2019-02-28T13:51:40.457Z,26.67
2019-02-28T13:54:18.432Z,28.67
2019-02-28T13:56:59.056Z,24.77
2019-02-28T13:59:28.428Z,26.20
2019-02-28T14:02:17.229Z,25.43
2019-02-28T14:08:32.747Z,25.47
2019-02-28T14:11:20.740Z,27.53
2019-02-28T14:14:08.723Z,26.03
2019-02-28T14:16:58.382Z,26.53
2019-02-28T14:19:46.268Z,23.87
2019-02-28T14:22:34.198Z,23.23
2019-02-28T14:28:32.364Z,23.47
2019-02-28T14:31:20.443Z,24.60
2019-02-28T14:34:08.359Z,22.00
2019-02-28T14:36:56.291Z,21.20
2019-02-28T14:39:44.178Z,24.70
2019-02-28T14:42:32.022Z,23.50
2019-02-28T14:48:40.786Z,25.87
2019-02-28T14:51:19.063Z,20.47
2019-02-28T14:54:06.979Z,21.83
2019-02-28T14:56:54.894Z,20.43
2019-02-28T15:02:33.087Z,18.43
2019-02-28T15:05:21.688Z,23.23
2019-02-28T15:08:11.958Z,18.83
2019-02-28T15:11:00.250Z,23.67
2019-02-28T15:13:48.169Z,25.90
2019-02-28T15:16:36.061Z,22.90
2019-02-28T15:19:24.437Z,27.73
2019-02-28T15:22:14.255Z,25.30
2019-02-28T15:28:30.683Z,24.70
2019-02-28T15:31:18.580Z,28.20
2019-02-28T15:34:06.496Z,29.57
2019-02-28T15:36:55.636Z,27.83
2019-02-28T15:39:43.950Z,28.03
2019-02-28T15:42:31.945Z,28.50
2019-02-28T15:45:19.909Z,31.13
2019-02-28T15:48:01.009Z,27.43
2019-02-28T15:50:39.315Z,25.20
2019-02-28T15:53:27.294Z,26.67
2019-02-28T15:56:19.557Z,30.30
2019-02-28T15:59:04.811Z,22.20
2019-02-28T16:01:52.765Z,22.73
2019-02-28T16:11:09.371Z,14.03
2019-02-28T16:13:57.510Z,12.33
2019-02-28T16:16:46.739Z,16.00
2019-02-28T16:19:34.651Z,12.40
2019-02-28T16:22:22.539Z,13.20
2019-02-28T16:28:25.020Z,16.40
2019-02-28T16:31:12.975Z,13.97
2019-02-28T16:34:08.127Z,18.53
2019-02-28T16:36:50.433Z,16.60
2019-02-28T16:39:38.423Z,17.27
2019-02-28T16:45:54.141Z,18.93
2019-02-28T16:48:42.010Z,16.10
2019-02-28T16:51:30.262Z,15.23
2019-02-28T16:54:22.432Z,13.53
2019-02-28T16:57:09.461Z,18.27
2019-02-28T16:59:58.578Z,16.30
2019-02-28T17:02:46.394Z,13.27
2019-02-28T17:05:34.386Z,17.40
2019-02-28T17:08:22.198Z,15.77
2019-02-28T17:11:10.186Z,16.47
2019-02-28T17:17:25.990Z,14.43
2019-02-28T17:20:13.999Z,13.70
2019-02-28T17:23:02.189Z,14.50
2019-02-28T17:25:53.506Z,14.17
2019-02-28T17:31:49.693Z,13.83
2019-02-28T17:34:37.581Z,15.37
2019-02-28T17:37:26.646Z,15.27
2019-02-28T17:40:15.209Z,16.33
2019-02-28T17:43:03.126Z,15.10
2019-02-28T17:45:51.510Z,15.70
2019-02-28T17:48:59.913Z,17.93
2019-02-28T17:55:21.014Z,17.50
2019-02-28T18:01:42.451Z,13.63
2019-02-28T18:04:49.674Z,16.17
2019-02-28T18:17:40.046Z,17.53
2019-02-28T18:20:47.268Z,16.07
2019-02-28T18:23:54.594Z,16.90
2019-02-28T18:30:15.705Z,26.90
2019-02-28T18:33:06.766Z,23.77
2019-02-28T18:35:53.346Z,26.07
2019-02-28T18:38:41.271Z,20.53
2019-02-28T18:41:29.186Z,22.03
2019-02-28T18:44:17.151Z,20.93
2019-02-28T18:46:57.481Z,21.37
2019-02-28T18:49:35.799Z,22.23
2019-02-28T18:52:23.695Z,23.43
2019-02-28T18:55:11.591Z,19.13
2019-02-28T18:58:01.366Z,17.33
2019-02-28T19:00:29.843Z,15.27
2019-02-28T19:03:17.746Z,15.77
2019-02-28T19:06:05.702Z,18.50
2019-02-28T19:08:53.618Z,19.57
2019-02-28T19:11:41.506Z,14.03
2019-02-28T19:14:29.425Z,17.77
2019-02-28T19:17:17.355Z,19.00
2019-02-28T19:20:24.568Z,18.77
2019-02-28T19:22:53.141Z,18.87
2019-02-28T19:25:40.962Z,13.47
2019-02-28T19:28:28.951Z,15.37
2019-02-28T19:31:16.844Z,18.33
2019-02-28T19:34:04.832Z,16.13
2019-02-28T19:36:52.798Z,13.83
2019-02-28T19:39:40.718Z,15.53
2019-02-28T19:42:28.627Z,13.63
2019-02-28T19:45:36.064Z,17.90
2019-02-28T19:48:16.794Z,16.47
2019-02-28T19:50:57.280Z,16.57
2019-02-28T19:53:37.722Z,16.10
2019-02-28T19:56:06.419Z,13.47
2019-02-28T19:58:54.340Z,19.67
2019-02-28T20:01:42.222Z,14.93
2019-02-28T20:04:30.145Z,17.53
2019-02-28T20:07:18.039Z,15.70
2019-02-28T20:13:20.019Z,12.73
2019-02-28T20:16:07.855Z,17.10
2019-02-28T20:18:55.819Z,14.40
2019-02-28T20:21:43.655Z,16.33
2019-02-28T20:24:31.574Z,14.77
2019-02-28T20:27:19.546Z,13.70
2019-02-28T20:33:21.731Z,12.97
2019-02-28T20:36:09.710Z,10.70
2019-02-28T20:38:57.594Z,14.47
2019-02-28T20:41:45.582Z,15.17
2019-02-28T20:44:33.525Z,13.17
2019-02-28T20:47:14.724Z,13.00
2019-02-28T20:49:55.650Z,10.50
2019-02-28T20:52:36.189Z,12.43
2019-02-28T20:55:16.970Z,12.27
2019-02-28T20:57:58.014Z,16.17
2019-02-28T21:00:39.031Z,13.67
2019-02-28T21:03:19.632Z,14.10
2019-02-28T21:06:00.077Z,13.63
2019-02-28T21:08:40.874Z,12.73
2019-02-28T21:11:21.298Z,14.90
2019-02-28T21:14:00.132Z,14.47
2019-02-28T21:16:48.043Z,10.37
2019-02-28T21:19:35.934Z,13.73
2019-02-28T21:22:23.862Z,13.10
2019-02-28T21:28:25.672Z,15.67
2019-02-28T21:31:13.586Z,9.07
2019-02-28T21:34:01.491Z,13.17
2019-02-28T21:36:30.128Z,13.13
2019-02-28T21:42:07.828Z,13.27
2019-02-28T21:47:38.281Z,12.63
2019-02-28T21:52:50.358Z,11.77
2019-02-28T21:55:38.236Z,13.80
2019-02-28T22:01:05.587Z,12.70
2019-02-28T22:06:49.271Z,17.60
2019-02-28T22:12:29.447Z,16.03
2019-02-28T22:15:36.668Z,15.00
2019-02-28T22:18:05.261Z,17.40
2019-02-28T22:20:33.811Z,16.00
2019-02-28T22:29:19.311Z,11.73
2019-02-28T22:37:46.666Z,17.50
2019-02-28T22:43:09.033Z,16.93
2019-02-28T22:45:56.923Z,14.97
2019-02-28T22:48:44.835Z,12.70
2019-02-28T22:51:32.746Z,11.40
2019-02-28T22:54:20.657Z,12.70
2019-02-28T22:57:08.645Z,10.73
2019-02-28T22:59:56.505Z,13.90
2019-02-28T23:05:41.151Z,12.73
2019-02-28T23:08:29.139Z,11.43
2019-02-28T23:13:53.551Z,12.03
2019-02-28T23:16:41.430Z,10.13
2019-02-28T23:19:29.355Z,9.43
2019-02-28T23:22:17.312Z,8.67
2019-02-28T23:28:38.967Z,11.80
2019-02-28T23:31:46.211Z,13.93
2019-02-28T23:37:48.460Z,9.47
2019-02-28T23:40:36.547Z,10.17
2019-02-28T23:43:05.313Z,8.03
2019-02-28T23:45:53.296Z,7.77
2019-02-28T23:48:42.441Z,9.43
2019-02-28T23:51:30.778Z,8.00
2019-02-28T23:57:21.248Z,9.47
